Time;durP1;ratioP1;P1;durP2;ratioP2;P2;SDS_P1;SDS_P2;PMS_P1;PMS_P2;Temp;Humidity;BMP_temperature;BMP_pressure;BME280_temperature;BME280_humidity;BME280_pressure;Samples;Min_cycle;Max_cycle;Signal;HPM_P1;HPM_P2
2023/01/11 00:00:15;;;;;;;23.67;3.63;;;;;;;;;;5095484;28;20050;-72
2023/01/11 00:02:44;;;;;;;23.00;3.15;;;;;;;;;;5095496;28;20048;-72
2023/01/11 00:05:11;;;;;;;18.83;2.90;;;;;;;;;;5094935;28;20475;-72
2023/01/11 00:07:39;;;;;;;17.33;3.50;;;;;;;;;;5095035;28;20040;-72
2023/01/11 00:10:07;;;;;;;28.80;3.47;;;;;;;;;;5094951;28;20956;-72
2023/01/11 00:12:33;;;;;;;20.92;3.92;;;;;;;;;;5094863;28;20044;-72
2023/01/11 00:14:59;;;;;;;24.00;3.70;;;;;;;;;;5094928;28;20055;-72
2023/01/11 00:17:27;;;;;;;25.73;3.50;;;;;;;;;;5094921;28;20050;-72
2023/01/11 00:19:53;;;;;;;22.48;4.03;;;;;;;;;;5094883;28;20407;-72
2023/01/11 00:22:21;;;;;;;21.73;3.75;;;;;;;;;;5094976;28;20047;-72
2023/01/11 00:24:47;;;;;;;23.25;3.95;;;;;;;;;;5095066;28;20151;-72
2023/01/11 00:27:13;;;;;;;22.77;4.15;;;;;;;;;;5094740;28;20055;-72
2023/01/11 00:29:40;;;;;;;20.58;3.78;;;;;;;;;;5094777;28;20510;-72
2023/01/11 00:32:06;;;;;;;29.23;4.68;;;;;;;;;;5094569;28;20048;-72
2023/01/11 00:34:33;;;;;;;30.38;4.05;;;;;;;;;;5094621;28;20044;-72
2023/01/11 00:36:59;;;;;;;30.02;4.10;;;;;;;;;;5094631;28;20044;-71
2023/01/11 00:39:26;;;;;;;26.23;4.10;;;;;;;;;;5094712;28;20122;-71
2023/01/11 00:50:07;;;;;;;24.40;3.40;;;;;;;;;;5093857;28;20127;-72
2023/01/11 00:52:33;;;;;;;20.80;3.70;;;;;;;;;;5094149;28;20514;-72
2023/01/11 00:55:00;;;;;;;16.90;3.20;;;;;;;;;;5094081;28;20132;-72
2023/01/11 00:57:26;;;;;;;17.77;3.78;;;;;;;;;;5094416;28;20432;-72
2023/01/11 00:59:52;;;;;;;20.25;3.65;;;;;;;;;;5094068;28;20066;-72
2023/01/11 01:02:19;;;;;;;21.55;3.30;;;;;;;;;;5094128;28;20054;-72
2023/01/11 01:04:45;;;;;;;24.13;3.20;;;;;;;;;;5093906;28;20059;-72
2023/01/11 01:07:11;;;;;;;20.67;3.83;;;;;;;;;;5094105;28;20052;-72
2023/01/11 01:09:38;;;;;;;27.77;4.03;;;;;;;;;;5093954;28;20044;-72
2023/01/11 01:12:05;;;;;;;21.15;2.92;;;;;;;;;;5093700;28;20463;-72
2023/01/11 01:14:32;;;;;;;22.52;3.67;;;;;;;;;;5093778;28;20492;-72
2023/01/11 01:17:03;;;;;;;27.50;4.35;;;;;;;;;;5093725;28;20076;-72
2023/01/11 01:19:30;;;;;;;21.35;3.33;;;;;;;;;;5094021;28;20044;-72
2023/01/11 01:21:57;;;;;;;16.57;3.63;;;;;;;;;;5093698;28;20551;-72
2023/01/11 01:24:24;;;;;;;18.67;3.42;;;;;;;;;;5094098;28;20281;-72
2023/01/11 01:26:50;;;;;;;21.45;3.90;;;;;;;;;;5093615;28;20044;-72
2023/01/11 01:29:17;;;;;;;25.50;3.47;;;;;;;;;;5093695;28;20050;-72
2023/01/11 01:31:43;;;;;;;19.65;3.45;;;;;;;;;;5093674;28;20048;-72
2023/01/11 01:34:11;;;;;;;22.70;3.72;;;;;;;;;;5093315;28;20055;-72
2023/01/11 01:36:37;;;;;;;20.63;3.30;;;;;;;;;;5093343;28;20043;-72
2023/01/11 01:39:04;;;;;;;27.27;4.15;;;;;;;;;;5093301;28;20593;-72
2023/01/11 01:41:31;;;;;;;18.10;3.15;;;;;;;;;;5093492;28;20083;-72
2023/01/11 01:43:58;;;;;;;22.90;4.60;;;;;;;;;;5093539;28;20162;-72
2023/01/11 01:46:26;;;;;;;23.85;4.28;;;;;;;;;;5093259;28;20408;-72
2023/01/11 01:48:56;;;;;;;20.83;3.22;;;;;;;;;;5093444;28;20427;-72
2023/01/11 01:51:26;;;;;;;24.45;3.92;;;;;;;;;;5093074;28;20062;-72
2023/01/11 01:53:55;;;;;;;22.92;3.50;;;;;;;;;;5093288;28;20044;-72
2023/01/11 01:56:27;;;;;;;22.00;3.65;;;;;;;;;;5092913;28;20060;-72
2023/01/11 01:58:56;;;;;;;21.63;3.90;;;;;;;;;;5093146;28;20094;-72
2023/01/11 02:04:11;;;;;;;19.67;3.25;;;;;;;;;;5092988;28;20051;-72
2023/01/11 02:06:38;;;;;;;23.08;3.80;;;;;;;;;;5093376;28;20048;-72
2023/01/11 02:09:07;;;;;;;22.80;3.70;;;;;;;;;;5092993;28;20112;-72
2023/01/11 02:11:42;;;;;;;23.25;4.28;;;;;;;;;;5092676;28;20566;-72
2023/01/11 02:14:11;;;;;;;20.27;3.13;;;;;;;;;;5092678;28;20119;-72
2023/01/11 02:16:37;;;;;;;21.92;3.38;;;;;;;;;;5092597;28;20583;-72
2023/01/11 02:19:06;;;;;;;20.38;2.92;;;;;;;;;;5092671;28;20047;-72
2023/01/11 02:21:33;;;;;;;16.65;3.03;;;;;;;;;;5092485;28;20127;-72
2023/01/11 02:24:18;;;;;;;19.70;3.20;;;;;;;;;;5092629;28;20051;-73
2023/01/11 02:27:03;;;;;;;22.67;3.95;;;;;;;;;;5092391;28;20622;-73
2023/01/11 02:29:36;;;;;;;19.67;3.70;;;;;;;;;;5092201;28;20040;-73
2023/01/11 02:32:14;;;;;;;18.58;3.42;;;;;;;;;;5092437;28;20052;-73
2023/01/11 02:34:44;;;;;;;22.00;3.33;;;;;;;;;;5092194;28;20411;-73
2023/01/11 02:37:19;;;;;;;18.23;3.05;;;;;;;;;;5092506;28;20056;-73
2023/01/11 02:39:45;;;;;;;23.25;3.85;;;;;;;;;;5092189;28;20087;-73
2023/01/11 02:45:30;;;;;;;20.35;3.55;;;;;;;;;;5092079;28;20051;-73
2023/01/11 02:48:11;;;;;;;26.77;4.18;;;;;;;;;;5092134;28;20062;-73
2023/01/11 02:50:42;;;;;;;19.63;3.45;;;;;;;;;;5092368;28;20046;-73
2023/01/11 02:53:16;;;;;;;25.73;3.28;;;;;;;;;;5092475;28;20054;-73
2023/01/11 02:55:47;;;;;;;21.05;2.92;;;;;;;;;;5092289;28;20040;-73
2023/01/11 02:58:14;;;;;;;15.65;3.33;;;;;;;;;;5091925;28;20143;-72
2023/01/11 03:00:41;;;;;;;18.52;3.28;;;;;;;;;;5091923;28;20044;-72
2023/01/11 03:03:18;;;;;;;23.67;3.58;;;;;;;;;;5092123;28;20086;-72
2023/01/11 03:05:51;;;;;;;18.67;3.40;;;;;;;;;;5091730;28;20052;-72
2023/01/11 03:08:29;;;;;;;19.67;3.13;;;;;;;;;;5091861;28;20064;-72
2023/01/11 03:11:01;;;;;;;22.10;3.40;;;;;;;;;;5091746;28;20500;-72
2023/01/11 03:13:27;;;;;;;17.63;3.00;;;;;;;;;;5091536;28;20504;-72
2023/01/11 03:15:54;;;;;;;22.58;3.47;;;;;;;;;;5091714;28;20048;-72
2023/01/11 03:18:50;;;;;;;17.23;3.30;;;;;;;;;;5091823;28;20055;-72
2023/01/11 03:21:17;;;;;;;19.05;3.50;;;;;;;;;;5079034;28;20044;-72
2023/01/11 03:23:55;;;;;;;22.10;3.25;;;;;;;;;;5091865;28;20048;-72
2023/01/11 03:26:21;;;;;;;21.90;3.78;;;;;;;;;;5091905;28;20048;-73
2023/01/11 03:29:03;;;;;;;22.05;3.75;;;;;;;;;;5091907;28;20154;-73
2023/01/11 03:31:37;;;;;;;13.55;3.20;;;;;;;;;;5091607;28;20467;-73
2023/01/11 03:34:29;;;;;;;15.20;2.80;;;;;;;;;;5091407;28;20094;-73
2023/01/11 03:37:03;;;;;;;22.15;3.05;;;;;;;;;;5091828;28;20062;-73
2023/01/11 03:39:38;;;;;;;19.05;2.65;;;;;;;;;;5091521;28;20048;-73
2023/01/11 03:42:07;;;;;;;17.67;3.50;;;;;;;;;;5091759;28;20054;-73
2023/01/11 03:44:37;;;;;;;25.05;3.35;;;;;;;;;;5091484;28;20105;-73
2023/01/11 03:47:05;;;;;;;22.63;3.53;;;;;;;;;;5091691;28;20138;-73
2023/01/11 03:49:31;;;;;;;20.95;3.08;;;;;;;;;;5090089;28;20052;-73
2023/01/11 03:51:59;;;;;;;17.25;2.85;;;;;;;;;;5091458;28;20139;-73
2023/01/11 03:54:27;;;;;;;18.77;3.67;;;;;;;;;;5091511;28;20126;-73
2023/01/11 03:57:12;;;;;;;17.60;3.33;;;;;;;;;;5091344;28;20047;-73
2023/01/11 03:59:39;;;;;;;20.02;3.63;;;;;;;;;;5091474;28;20052;-73
2023/01/11 04:02:13;;;;;;;18.35;3.05;;;;;;;;;;5091557;28;20126;-73
2023/01/11 04:04:40;;;;;;;22.58;4.15;;;;;;;;;;5091378;28;20044;-73
2023/01/11 04:07:06;;;;;;;20.77;3.60;;;;;;;;;;5091308;28;20044;-73
2023/01/11 04:09:33;;;;;;;18.65;2.75;;;;;;;;;;5091282;28;20056;-73
2023/01/11 04:11:59;;;;;;;20.05;3.15;;;;;;;;;;5091422;28;20051;-73
2023/01/11 04:14:25;;;;;;;16.90;2.38;;;;;;;;;;5091391;28;20044;-73
2023/01/11 04:16:52;;;;;;;12.48;1.88;;;;;;;;;;5091107;28;20048;-73
2023/01/11 04:19:18;;;;;;;8.05;1.13;;;;;;;;;;5091318;28;20395;-73
2023/01/11 04:21:44;;;;;;;3.67;0.85;;;;;;;;;;5091251;28;20492;-73
2023/01/11 04:24:12;;;;;;;5.13;1.13;;;;;;;;;;5091237;28;20135;-73
2023/01/11 04:26:38;;;;;;;4.88;0.70;;;;;;;;;;5094794;28;20044;-73
2023/01/11 04:29:05;;;;;;;6.13;1.05;;;;;;;;;;5094922;28;20059;-73
2023/01/11 04:31:31;;;;;;;7.47;0.88;;;;;;;;;;5094797;28;20066;-73
2023/01/11 04:33:58;;;;;;;3.42;0.90;;;;;;;;;;5094428;28;20407;-73
2023/01/11 04:36:25;;;;;;;5.88;1.05;;;;;;;;;;5094705;28;20102;-73
2023/01/11 04:38:51;;;;;;;5.40;0.80;;;;;;;;;;5094470;28;20473;-73
2023/01/11 04:44:02;;;;;;;6.20;1.10;;;;;;;;;;5094574;28;20044;-73
2023/01/11 04:46:29;;;;;;;6.00;1.00;;;;;;;;;;5094207;28;20496;-73
2023/01/11 04:48:55;;;;;;;9.32;1.50;;;;;;;;;;5093320;28;20052;-73
2023/01/11 04:51:22;;;;;;;11.55;1.55;;;;;;;;;;5094619;28;20055;-73
2023/01/11 04:53:48;;;;;;;9.93;1.67;;;;;;;;;;5094120;28;20492;-73
2023/01/11 04:56:15;;;;;;;11.38;1.58;;;;;;;;;;5094302;28;20046;-73
2023/01/11 04:58:41;;;;;;;11.50;1.77;;;;;;;;;;5094126;28;20127;-73
2023/01/11 05:01:09;;;;;;;15.48;2.10;;;;;;;;;;5094240;28;20131;-73
2023/01/11 05:03:36;;;;;;;10.63;1.65;;;;;;;;;;5094465;28;20048;-73
2023/01/11 05:06:03;;;;;;;11.30;1.67;;;;;;;;;;5094233;28;20461;-73
2023/01/11 05:08:30;;;;;;;16.60;2.03;;;;;;;;;;5093943;28;20090;-73
2023/01/11 05:10:58;;;;;;;13.48;2.10;;;;;;;;;;5094266;28;20411;-73
2023/01/11 05:13:43;;;;;;;10.93;2.10;;;;;;;;;;5093641;28;20052;-73
2023/01/11 05:16:12;;;;;;;12.45;2.42;;;;;;;;;;5094039;28;20138;-73
2023/01/11 05:18:43;;;;;;;16.52;2.33;;;;;;;;;;5093636;28;20476;-73
2023/01/11 05:21:10;;;;;;;13.70;2.03;;;;;;;;;;5093696;28;20515;-73
2023/01/11 05:23:36;;;;;;;10.63;1.63;;;;;;;;;;5093850;28;20140;-73
2023/01/11 05:26:07;;;;;;;13.80;1.85;;;;;;;;;;5093599;28;20483;-74
2023/01/11 05:28:34;;;;;;;15.48;2.40;;;;;;;;;;5093516;28;20062;-73
2023/01/11 05:31:00;;;;;;;12.15;1.95;;;;;;;;;;5092448;28;20055;-73
2023/01/11 05:33:27;;;;;;;14.65;2.05;;;;;;;;;;5093382;28;20481;-73
2023/01/11 05:36:00;;;;;;;15.88;2.10;;;;;;;;;;5092825;28;20127;-73
2023/01/11 05:38:26;;;;;;;16.38;2.05;;;;;;;;;;5093162;28;20048;-73
2023/01/11 05:40:55;;;;;;;16.50;2.47;;;;;;;;;;5093362;28;20051;-73
2023/01/11 05:43:22;;;;;;;21.77;2.85;;;;;;;;;;5093346;28;20513;-73
2023/01/11 05:45:48;;;;;;;18.90;2.38;;;;;;;;;;5093432;28;20135;-72
2023/01/11 05:48:15;;;;;;;16.75;2.22;;;;;;;;;;5093304;28;20047;-72
2023/01/11 05:50:41;;;;;;;18.02;2.88;;;;;;;;;;5093080;28;20040;-72
2023/01/11 05:53:08;;;;;;;10.82;1.90;;;;;;;;;;5093064;28;20076;-72
2023/01/11 05:55:34;;;;;;;13.65;1.88;;;;;;;;;;5093199;28;20165;-72
2023/01/11 05:58:01;;;;;;;12.23;2.08;;;;;;;;;;5092839;28;20131;-72
2023/01/11 06:00:27;;;;;;;12.38;2.05;;;;;;;;;;5093171;28;20119;-72
2023/01/11 06:02:53;;;;;;;8.85;1.42;;;;;;;;;;5093178;28;20040;-72
2023/01/11 06:05:20;;;;;;;15.52;2.20;;;;;;;;;;5092804;28;20044;-72
2023/01/11 06:07:46;;;;;;;14.07;1.65;;;;;;;;;;5092714;28;20055;-72
2023/01/11 06:10:12;;;;;;;13.15;1.63;;;;;;;;;;5092564;28;20044;-72
2023/01/11 06:12:39;;;;;;;14.82;1.70;;;;;;;;;;5092655;28;20052;-72
2023/01/11 06:15:06;;;;;;;10.77;1.83;;;;;;;;;;5092920;28;20046;-72
2023/01/11 06:17:32;;;;;;;16.75;2.47;;;;;;;;;;5092951;28;20044;-73
2023/01/11 06:19:58;;;;;;;12.02;2.25;;;;;;;;;;5092420;28;20518;-72
2023/01/11 06:22:25;;;;;;;12.68;1.98;;;;;;;;;;5092798;28;20411;-73
2023/01/11 06:24:51;;;;;;;17.15;2.10;;;;;;;;;;5092425;28;20430;-73
2023/01/11 06:27:17;;;;;;;15.27;2.85;;;;;;;;;;5092608;28;20406;-72
2023/01/11 06:29:44;;;;;;;15.00;2.47;;;;;;;;;;5092586;28;20051;-73
2023/01/11 06:32:10;;;;;;;19.05;3.25;;;;;;;;;;5092576;28;20052;-73
2023/01/11 06:34:37;;;;;;;15.75;2.90;;;;;;;;;;5092262;28;20048;-73
2023/01/11 06:37:03;;;;;;;14.63;2.30;;;;;;;;;;5092437;28;20052;-73
2023/01/11 06:39:29;;;;;;;14.25;2.10;;;;;;;;;;5092134;28;20050;-73
2023/01/11 06:41:56;;;;;;;12.45;2.20;;;;;;;;;;5092117;28;20048;-73
2023/01/11 06:44:22;;;;;;;17.13;2.10;;;;;;;;;;5092232;28;20082;-73
2023/01/11 06:46:48;;;;;;;22.50;3.08;;;;;;;;;;5092285;28;20054;-73
2023/01/11 06:49:15;;;;;;;20.40;3.13;;;;;;;;;;5091792;28;20048;-73
2023/01/11 06:51:41;;;;;;;21.38;2.88;;;;;;;;;;5092089;28;20052;-72
2023/01/11 06:54:08;;;;;;;25.88;2.97;;;;;;;;;;5091895;28;20048;-72
2023/01/11 06:56:34;;;;;;;25.50;2.63;;;;;;;;;;5092207;28;20119;-73
2023/01/11 06:59:00;;;;;;;29.38;3.80;;;;;;;;;;5092199;28;20040;-73
2023/01/11 07:01:29;;;;;;;22.40;2.58;;;;;;;;;;5090526;28;20096;-72
2023/01/11 07:03:55;;;;;;;27.42;3.85;;;;;;;;;;5092084;28;20056;-72
2023/01/11 07:06:23;;;;;;;24.00;3.35;;;;;;;;;;5091666;28;20051;-73
2023/01/11 07:08:49;;;;;;;27.30;2.87;;;;;;;;;;5092043;28;20453;-73
2023/01/11 07:11:15;;;;;;;29.52;4.10;;;;;;;;;;5091634;28;20368;-72
2023/01/11 07:13:42;;;;;;;27.35;3.42;;;;;;;;;;5091532;28;20384;-72
2023/01/11 07:16:08;;;;;;;27.10;3.78;;;;;;;;;;5091952;28;20067;-72
2023/01/11 07:18:36;;;;;;;24.83;3.38;;;;;;;;;;5091400;28;20058;-73
2023/01/11 07:21:02;;;;;;;28.98;3.88;;;;;;;;;;5071879;28;20511;-72
2023/01/11 07:23:28;;;;;;;21.77;3.33;;;;;;;;;;5072604;28;20408;-73
2023/01/11 07:25:55;;;;;;;31.35;4.20;;;;;;;;;;5090912;28;20102;-72
2023/01/11 07:28:22;;;;;;;29.13;3.30;;;;;;;;;;5090865;28;20058;-72
2023/01/11 07:30:48;;;;;;;28.42;3.78;;;;;;;;;;5091221;28;20140;-73
2023/01/11 07:33:24;;;;;;;23.98;3.70;;;;;;;;;;5090981;28;20056;-72
2023/01/11 07:35:50;;;;;;;28.27;3.75;;;;;;;;;;5091128;28;20055;-73
2023/01/11 07:38:17;;;;;;;29.27;3.97;;;;;;;;;;5091740;28;20126;-73
2023/01/11 07:40:43;;;;;;;27.35;3.85;;;;;;;;;;5091508;28;20050;-72
2023/01/11 07:43:10;;;;;;;27.33;3.85;;;;;;;;;;5091387;28;20554;-73
2023/01/11 07:45:37;;;;;;;21.40;3.40;;;;;;;;;;5091483;28;20048;-73
2023/01/11 07:48:23;;;;;;;29.30;4.03;;;;;;;;;;5091478;28;20113;-73
2023/01/11 07:50:51;;;;;;;25.38;3.97;;;;;;;;;;5089714;28;20134;-73
2023/01/11 07:53:17;;;;;;;25.63;3.30;;;;;;;;;;5090013;28;20407;-72
2023/01/11 07:55:44;;;;;;;26.88;2.97;;;;;;;;;;5090065;28;20298;-73
2023/01/11 07:58:11;;;;;;;27.50;3.65;;;;;;;;;;5090313;28;20048;-73
2023/01/11 08:00:39;;;;;;;27.53;4.17;;;;;;;;;;5092770;28;20067;-73
2023/01/11 08:03:06;;;;;;;22.77;4.47;;;;;;;;;;5094362;28;20048;-72
2023/01/11 08:05:32;;;;;;;18.40;3.95;;;;;;;;;;5095269;28;20089;-73
2023/01/11 08:07:59;;;;;;;18.15;3.22;;;;;;;;;;5095284;28;20054;-73
2023/01/11 08:10:25;;;;;;;17.50;2.65;;;;;;;;;;5095220;28;20052;-73
2023/01/11 08:15:37;;;;;;;18.13;2.90;;;;;;;;;;5095487;28;20139;-73
2023/01/11 08:18:05;;;;;;;20.05;2.60;;;;;;;;;;5095098;28;20075;-73
2023/01/11 08:20:31;;;;;;;16.45;3.05;;;;;;;;;;5095181;28;20119;-73
2023/01/11 08:23:01;;;;;;;19.50;3.25;;;;;;;;;;5095213;28;20097;-73
2023/01/11 08:25:27;;;;;;;19.05;2.72;;;;;;;;;;5094678;28;20131;-73
2023/01/11 08:27:54;;;;;;;15.75;3.10;;;;;;;;;;5095078;28;20054;-73
2023/01/11 08:30:20;;;;;;;21.85;2.80;;;;;;;;;;5094878;28;20044;-73
2023/01/11 08:32:46;;;;;;;18.58;2.70;;;;;;;;;;5094757;28;20052;-73
2023/01/11 08:35:13;;;;;;;20.98;3.03;;;;;;;;;;5094551;28;20047;-73
2023/01/11 08:37:39;;;;;;;14.88;2.28;;;;;;;;;;5094566;28;20134;-73
2023/01/11 08:40:07;;;;;;;17.52;2.25;;;;;;;;;;5094615;28;20505;-73
2023/01/11 08:42:34;;;;;;;16.40;2.55;;;;;;;;;;5094342;28;20123;-73
2023/01/11 08:45:00;;;;;;;13.68;2.78;;;;;;;;;;5094382;28;20127;-73
2023/01/11 08:47:27;;;;;;;15.85;2.70;;;;;;;;;;5094236;28;20101;-73
2023/01/11 08:49:53;;;;;;;12.52;1.95;;;;;;;;;;5094556;28;20443;-73
2023/01/11 08:52:20;;;;;;;12.13;1.77;;;;;;;;;;5094219;28;20054;-73
2023/01/11 08:54:46;;;;;;;13.43;2.55;;;;;;;;;;5094087;28;20040;-73
2023/01/11 08:57:13;;;;;;;10.70;1.80;;;;;;;;;;5094067;28;20051;-73
2023/01/11 08:59:39;;;;;;;11.63;2.10;;;;;;;;;;5094247;28;20044;-73
2023/01/11 09:02:05;;;;;;;14.98;2.20;;;;;;;;;;5093997;28;20138;-73
2023/01/11 09:04:32;;;;;;;14.25;1.80;;;;;;;;;;5093057;28;20052;-73
2023/01/11 09:07:00;;;;;;;7.82;2.30;;;;;;;;;;5093814;28;20048;-73
2023/01/11 09:09:26;;;;;;;10.40;1.92;;;;;;;;;;5093913;28;20062;-73
2023/01/11 09:11:52;;;;;;;8.80;1.27;;;;;;;;;;5093528;28;20050;-73
2023/01/11 09:14:19;;;;;;;7.60;1.30;;;;;;;;;;5094035;28;20079;-73
2023/01/11 09:16:47;;;;;;;7.57;1.20;;;;;;;;;;5093911;28;20054;-73
2023/01/11 09:19:14;;;;;;;8.93;2.10;;;;;;;;;;5094014;28;20044;-73
2023/01/11 09:21:40;;;;;;;8.23;1.67;;;;;;;;;;5093870;28;20502;-73
2023/01/11 09:24:06;;;;;;;8.35;1.75;;;;;;;;;;5093981;28;20135;-73
2023/01/11 09:26:34;;;;;;;8.15;1.38;;;;;;;;;;5093616;28;20044;-73
2023/01/11 09:29:01;;;;;;;6.70;1.70;;;;;;;;;;5093770;28;20044;-73
2023/01/11 09:31:27;;;;;;;7.97;1.60;;;;;;;;;;5093721;28;20051;-73
2023/01/11 09:33:54;;;;;;;11.23;2.00;;;;;;;;;;5093279;28;20442;-73
2023/01/11 09:36:22;;;;;;;7.72;1.48;;;;;;;;;;5093392;28;20154;-73
2023/01/11 09:38:51;;;;;;;7.80;1.42;;;;;;;;;;5093231;28;20093;-73
2023/01/11 09:41:29;;;;;;;7.88;1.52;;;;;;;;;;5093679;28;20127;-73
2023/01/11 09:44:18;;;;;;;9.15;2.00;;;;;;;;;;5093142;28;20638;-73
2023/01/11 09:46:47;;;;;;;6.65;1.52;;;;;;;;;;5093317;28;20571;-74
2023/01/11 09:49:15;;;;;;;9.30;1.80;;;;;;;;;;5093304;28;20040;-73
2023/01/11 09:51:42;;;;;;;6.55;1.25;;;;;;;;;;5093308;28;20127;-73
2023/01/11 09:54:14;;;;;;;7.17;1.53;;;;;;;;;;5093140;28;20066;-73
2023/01/11 09:56:46;;;;;;;6.97;1.30;;;;;;;;;;5092972;28;20135;-73
2023/01/11 09:59:17;;;;;;;5.90;1.63;;;;;;;;;;5092967;28;20062;-73
2023/01/11 10:01:44;;;;;;;9.95;2.30;;;;;;;;;;5093146;28;20056;-73
2023/01/11 10:04:32;;;;;;;10.98;4.63;;;;;;;;;;5093047;28;20058;-73
2023/01/11 10:07:17;;;;;;;7.18;1.95;;;;;;;;;;5092994;28;20044;-73
2023/01/11 10:09:44;;;;;;;5.90;1.50;;;;;;;;;;5093143;28;20054;-73
2023/01/11 10:12:36;;;;;;;6.70;1.30;;;;;;;;;;5093156;28;20051;-74
2023/01/11 10:15:33;;;;;;;5.57;1.38;;;;;;;;;;5092466;28;20506;-73
2023/01/11 10:18:28;;;;;;;7.50;1.17;;;;;;;;;;5092677;28;20059;-73
2023/01/11 10:21:20;;;;;;;6.03;1.20;;;;;;;;;;5106044;28;20048;-73
2023/01/11 10:23:56;;;;;;;9.90;1.63;;;;;;;;;;5092001;28;20078;-74
2023/01/11 10:26:27;;;;;;;9.90;1.70;;;;;;;;;;5092558;28;20048;-73
2023/01/11 10:35:12;;;;;;;7.43;1.98;;;;;;;;;;5029660;28;20132;-73
2023/01/11 10:41:01;;;;;;;7.78;1.65;;;;;;;;;;5054094;28;20052;-74
2023/01/11 10:43:28;;;;;;;7.53;1.73;;;;;;;;;;5092056;28;20058;-74
2023/01/11 10:45:56;;;;;;;6.63;1.92;;;;;;;;;;5092067;28;20048;-74
2023/01/11 10:48:26;;;;;;;8.77;2.25;;;;;;;;;;5092261;28;20048;-74
2023/01/11 10:50:55;;;;;;;9.90;2.15;;;;;;;;;;5092026;28;20143;-74
2023/01/11 10:53:28;;;;;;;7.75;1.80;;;;;;;;;;5092237;28;20048;-73
2023/01/11 10:55:57;;;;;;;9.70;2.10;;;;;;;;;;5091949;28;20083;-73
2023/01/11 10:58:44;;;;;;;11.50;2.25;;;;;;;;;;5092156;28;20054;-73
2023/01/11 11:01:15;;;;;;;;;;;;;;;;;;5092374;28;20579;-73
2023/01/11 11:03:51;;;;;;;11.05;2.38;;;;;;;;;;5092177;28;19923;-73
2023/01/11 11:06:33;;;;;;;13.38;2.70;;;;;;;;;;5092203;28;20142;-73
2023/01/11 11:09:09;;;;;;;14.10;2.15;;;;;;;;;;5091803;28;20139;-73
2023/01/11 11:12:04;;;;;;;18.42;2.45;;;;;;;;;;5092011;28;20047;-73
2023/01/11 11:14:36;;;;;;;16.65;2.95;;;;;;;;;;5078778;28;20127;-73
2023/01/11 11:17:09;;;;;;;35.22;3.75;;;;;;;;;;5092005;28;20082;-73
2023/01/11 11:19:35;;;;;;;32.38;4.43;;;;;;;;;;5092072;28;20415;-71
2023/01/11 11:22:02;;;;;;;21.05;2.97;;;;;;;;;;5091600;28;20040;-71
2023/01/11 11:24:36;;;;;;;18.90;2.88;;;;;;;;;;5091646;28;20131;-71
2023/01/11 11:27:23;;;;;;;17.00;2.30;;;;;;;;;;5091515;28;20135;-70
2023/01/11 11:29:53;;;;;;;14.10;2.13;;;;;;;;;;5091554;28;20044;-70
2023/01/11 11:32:28;;;;;;;13.77;2.90;;;;;;;;;;5091868;28;20279;-71
2023/01/11 11:34:55;;;;;;;17.10;2.38;;;;;;;;;;5094032;28;20056;-71
2023/01/11 11:37:26;;;;;;;10.50;2.08;;;;;;;;;;5095873;28;20123;-70
2023/01/11 11:39:53;;;;;;;11.13;2.10;;;;;;;;;;5095920;28;20048;-71
2023/01/11 11:42:20;;;;;;;7.30;1.10;;;;;;;;;;5095694;28;20044;-71
2023/01/11 11:45:10;;;;;;;12.00;1.63;;;;;;;;;;5095537;28;20135;-70
2023/01/11 11:47:37;;;;;;;10.30;1.55;;;;;;;;;;5073649;28;20281;-70
2023/01/11 11:50:20;;;;;;;11.40;1.52;;;;;;;;;;5095417;28;20054;-70
2023/01/11 11:53:07;;;;;;;5.72;0.98;;;;;;;;;;5095334;28;20048;-71
2023/01/11 11:55:34;;;;;;;7.70;1.23;;;;;;;;;;5095430;28;20048;-71
2023/01/11 11:58:05;;;;;;;11.30;1.30;;;;;;;;;;5095190;28;20066;-70
2023/01/11 12:00:33;;;;;;;10.77;1.45;;;;;;;;;;5095551;28;20273;-70
2023/01/11 12:03:03;;;;;;;7.10;1.70;;;;;;;;;;5095356;28;20079;-70
2023/01/11 12:05:29;;;;;;;10.00;1.58;;;;;;;;;;5095108;28;20056;-71
2023/01/11 12:07:55;;;;;;;7.47;1.40;;;;;;;;;;5095383;28;20131;-70
2023/01/11 12:10:23;;;;;;;12.05;2.08;;;;;;;;;;5095297;28;20098;-71
2023/01/11 12:12:54;;;;;;;7.47;1.00;;;;;;;;;;5095317;28;20054;-71
2023/01/11 12:15:22;;;;;;;11.38;1.92;;;;;;;;;;5095082;28;20047;-71
2023/01/11 12:17:49;;;;;;;;;;;;;;;;;;5095348;28;20086;-71
2023/01/11 12:20:21;;;;;;;7.68;1.02;;;;;;;;;;5094753;28;20379;-71
2023/01/11 12:23:06;;;;;;;8.10;1.60;;;;;;;;;;5094988;28;20090;-71
2023/01/11 12:25:35;;;;;;;12.35;1.98;;;;;;;;;;5094740;28;20051;-71
2023/01/11 12:28:01;;;;;;;11.88;2.00;;;;;;;;;;5095029;28;20131;-72
2023/01/11 12:30:50;;;;;;;24.42;2.67;;;;;;;;;;5094739;28;20135;-70
2023/01/11 12:33:16;;;;;;;18.55;2.45;;;;;;;;;;5094506;28;20059;-70
2023/01/11 12:35:48;;;;;;;29.73;2.90;;;;;;;;;;5094905;28;20432;-70
2023/01/11 12:38:23;;;;;;;21.63;2.20;;;;;;;;;;5094626;28;20802;-70
2023/01/11 12:41:04;;;;;;;11.70;1.90;;;;;;;;;;5094384;28;20051;-70
2023/01/11 12:43:49;;;;;;;17.27;4.20;;;;;;;;;;5094404;28;20079;-70
2023/01/11 12:46:18;;;;;;;16.58;4.57;;;;;;;;;;5093743;28;20492;-70
2023/01/11 12:48:51;;;;;;;19.65;3.67;;;;;;;;;;5094504;28;20047;-70
2023/01/11 12:51:17;;;;;;;16.88;4.70;;;;;;;;;;5094617;28;20048;-70
2023/01/11 12:54:13;;;;;;;16.58;3.67;;;;;;;;;;5094462;28;20055;-70
2023/01/11 12:56:39;;;;;;;15.23;2.60;;;;;;;;;;5036555;28;20518;-70
2023/01/11 12:59:17;;;;;;;11.27;2.10;;;;;;;;;;5084479;28;20541;-70
2023/01/11 13:02:10;;;;;;;12.10;2.00;;;;;;;;;;5094266;28;20079;-70
2023/01/11 13:04:46;;;;;;;10.07;1.83;;;;;;;;;;5094240;28;20490;-70
2023/01/11 13:07:12;;;;;;;12.80;2.00;;;;;;;;;;5093907;28;20135;-70
2023/01/11 13:09:38;;;;;;;16.15;2.70;;;;;;;;;;5093946;28;20135;-70
2023/01/11 13:12:08;;;;;;;15.10;2.90;;;;;;;;;;5093882;28;20047;-70
2023/01/11 13:14:46;;;;;;;24.13;3.13;;;;;;;;;;5094014;28;20478;-70
2023/01/11 13:17:12;;;;;;;;;;;;;;;;;;5094196;28;20487;-70
2023/01/11 13:19:39;;;;;;;21.17;3.17;;;;;;;;;;5093759;28;19920;-70
2023/01/11 13:22:10;;;;;;;24.55;3.08;;;;;;;;;;5093866;28;20127;-70
2023/01/11 13:24:38;;;;;;;35.22;3.80;;;;;;;;;;5093743;28;20052;-69
2023/01/11 13:27:10;;;;;;;28.98;3.25;;;;;;;;;;5093539;28;20567;-70
2023/01/11 13:29:39;;;;;;;32.63;3.50;;;;;;;;;;5093894;28;20080;-70
2023/01/11 13:32:07;;;;;;;25.13;3.28;;;;;;;;;;5093424;28;20474;-70
2023/01/11 13:34:33;;;;;;;;;;;;;;;;;;5093840;28;20079;-70
2023/01/11 13:37:06;;;;;;;19.05;2.60;;;;;;;;;;5093324;28;20351;-70
2023/01/11 13:40:11;;;;;;;28.27;3.58;;;;;;;;;;5093561;28;20044;-70
2023/01/11 13:42:41;;;;;;;33.83;4.35;;;;;;;;;;5030766;28;20045;-69
2023/01/11 13:45:16;;;;;;;24.23;3.47;;;;;;;;;;5030779;28;20149;-70
2023/01/11 13:48:09;;;;;;;27.33;4.07;;;;;;;;;;5058677;28;20055;-69
2023/01/11 13:50:49;;;;;;;26.15;3.75;;;;;;;;;;5057364;28;20507;-70
2023/01/11 13:53:33;;;;;;;27.33;4.90;;;;;;;;;;5093456;28;20056;-70
2023/01/11 13:56:07;;;;;;;27.10;4.13;;;;;;;;;;5093203;28;20077;-70
2023/01/11 13:58:42;;;;;;;28.10;4.10;;;;;;;;;;5092667;28;20054;-70
2023/01/11 14:01:18;;;;;;;44.42;5.88;;;;;;;;;;5093187;28;20139;-70
2023/01/11 14:03:46;;;;;;;51.22;5.65;;;;;;;;;;5092946;28;20125;-71
2023/01/11 14:06:32;;;;;;;71.10;6.78;;;;;;;;;;5092960;28;20127;-71
2023/01/11 14:09:01;;;;;;;82.82;7.90;;;;;;;;;;5092782;28;20127;-68
2023/01/11 14:11:31;;;;;;;57.63;6.32;;;;;;;;;;5092925;28;20044;-68
2023/01/11 14:14:20;;;;;;;18.17;3.25;;;;;;;;;;5092804;28;20084;-68
2023/01/11 14:16:47;;;;;;;17.85;2.28;;;;;;;;;;5054780;28;20542;-68
2023/01/11 14:19:28;;;;;;;17.88;3.58;;;;;;;;;;5092531;28;20136;-68
2023/01/11 14:22:03;;;;;;;17.75;2.78;;;;;;;;;;5092449;28;20582;-68
2023/01/11 14:24:31;;;;;;;12.88;3.13;;;;;;;;;;5092543;28;20059;-68
2023/01/11 14:26:57;;;;;;;16.05;3.88;;;;;;;;;;5092260;28;20052;-68
2023/01/11 14:29:40;;;;;;;20.52;4.00;;;;;;;;;;5092534;28;20067;-68
2023/01/11 14:32:13;;;;;;;20.30;4.60;;;;;;;;;;5092624;28;20159;-68
2023/01/11 14:35:04;;;;;;;16.63;4.10;;;;;;;;;;5092168;28;20083;-68
2023/01/11 14:37:42;;;;;;;14.85;3.92;;;;;;;;;;5092460;28;20489;-68
2023/01/11 14:40:18;;;;;;;18.90;4.13;;;;;;;;;;5091074;28;20051;-68
2023/01/11 14:42:50;;;;;;;14.07;2.60;;;;;;;;;;5092132;28;20048;-68
2023/01/11 14:45:23;;;;;;;11.70;2.38;;;;;;;;;;5092452;28;20052;-68
2023/01/11 14:48:01;;;;;;;12.27;2.20;;;;;;;;;;5091996;28;20040;-68
2023/01/11 14:50:46;;;;;;;17.10;4.15;;;;;;;;;;5092029;28;20131;-68
2023/01/11 14:53:16;;;;;;;21.88;5.97;;;;;;;;;;5091992;28;20568;-68
2023/01/11 14:55:47;;;;;;;19.40;3.33;;;;;;;;;;5092196;28;20558;-68
2023/01/11 14:58:17;;;;;;;14.10;2.10;;;;;;;;;;5091994;28;20048;-68
2023/01/11 15:00:43;;;;;;;9.45;2.60;;;;;;;;;;5092243;28;20040;-68
2023/01/11 15:03:09;;;;;;;14.02;2.60;;;;;;;;;;5091928;28;20086;-68
2023/01/11 15:05:45;;;;;;;23.75;3.55;;;;;;;;;;5091830;28;20047;-68
2023/01/11 15:08:11;;;;;;;17.98;2.22;;;;;;;;;;5091004;28;20126;-68
2023/01/11 15:10:43;;;;;;;13.05;2.53;;;;;;;;;;5090612;28;20043;-68
2023/01/11 15:13:12;;;;;;;11.52;2.53;;;;;;;;;;5092061;28;20044;-71
2023/01/11 15:18:24;;;;;;;10.93;1.90;;;;;;;;;;5091814;28;20096;-70
2023/01/11 15:20:52;;;;;;;8.40;1.70;;;;;;;;;;5091710;28;20478;-70
2023/01/11 15:23:19;;;;;;;8.20;1.50;;;;;;;;;;5091838;28;20135;-70